sensor_id;sensor_type;location;lat;lon;timestamp;P1;durP1;ratioP1;P2;durP2;ratioP2
61036;SDS011;72210;47.076;15.430;2023-11-18T00:01:50;0.60;;;0.50;;
61036;SDS011;72210;47.076;15.430;2023-11-18T00:04:17;0.50;;;0.40;;
61036;SDS011;72210;47.076;15.430;2023-11-18T00:06:44;0.70;;;0.60;;
61036;SDS011;72210;47.076;15.430;2023-11-18T00:09:13;0.60;;;0.50;;
61036;SDS011;72210;47.076;15.430;2023-11-18T00:11:40;0.63;;;0.60;;
61036;SDS011;72210;47.076;15.430;2023-11-18T00:14:07;0.60;;;0.50;;
61036;SDS011;72210;47.076;15.430;2023-11-18T00:16:36;0.50;;;0.47;;
61036;SDS011;72210;47.076;15.430;2023-11-18T00:19:03;0.60;;;0.50;;
61036;SDS011;72210;47.076;15.430;2023-11-18T00:21:31;0.70;;;0.57;;
61036;SDS011;72210;47.076;15.430;2023-11-18T00:23:58;0.60;;;0.50;;
61036;SDS011;72210;47.076;15.430;2023-11-18T00:26:26;0.60;;;0.40;;
61036;SDS011;72210;47.076;15.430;2023-11-18T00:28:53;0.50;;;0.50;;
61036;SDS011;72210;47.076;15.430;2023-11-18T00:31:20;0.50;;;0.50;;
61036;SDS011;72210;47.076;15.430;2023-11-18T00:33:47;0.70;;;0.60;;
61036;SDS011;72210;47.076;15.430;2023-11-18T00:36:14;0.60;;;0.50;;
61036;SDS011;72210;47.076;15.430;2023-11-18T00:38:41;0.63;;;0.50;;
61036;SDS011;72210;47.076;15.430;2023-11-18T00:41:07;0.50;;;0.50;;
61036;SDS011;72210;47.076;15.430;2023-11-18T00:43:36;0.50;;;0.40;;
61036;SDS011;72210;47.076;15.430;2023-11-18T00:46:03;0.50;;;0.50;;
61036;SDS011;72210;47.076;15.430;2023-11-18T00:48:30;0.50;;;0.50;;
61036;SDS011;72210;47.076;15.430;2023-11-18T00:50:57;0.50;;;0.50;;
61036;SDS011;72210;47.076;15.430;2023-11-18T00:53:24;0.60;;;0.50;;
61036;SDS011;72210;47.076;15.430;2023-11-18T00:55:51;0.70;;;0.60;;
61036;SDS011;72210;47.076;15.430;2023-11-18T00:58:18;0.60;;;0.50;;
61036;SDS011;72210;47.076;15.430;2023-11-18T01:00:46;0.60;;;0.50;;
61036;SDS011;72210;47.076;15.430;2023-11-18T01:03:13;0.63;;;0.50;;
61036;SDS011;72210;47.076;15.430;2023-11-18T01:05:40;0.50;;;0.50;;
61036;SDS011;72210;47.076;15.430;2023-11-18T01:08:07;0.57;;;0.50;;
61036;SDS011;72210;47.076;15.430;2023-11-18T01:10:34;0.60;;;0.50;;
61036;SDS011;72210;47.076;15.430;2023-11-18T01:13:01;0.60;;;0.50;;
61036;SDS011;72210;47.076;15.430;2023-11-18T01:15:28;0.60;;;0.50;;
61036;SDS011;72210;47.076;15.430;2023-11-18T01:17:56;0.70;;;0.60;;
61036;SDS011;72210;47.076;15.430;2023-11-18T01:20:23;0.50;;;0.50;;
61036;SDS011;72210;47.076;15.430;2023-11-18T01:22:50;0.60;;;0.50;;
61036;SDS011;72210;47.076;15.430;2023-11-18T01:25:17;0.50;;;0.50;;
61036;SDS011;72210;47.076;15.430;2023-11-18T01:27:44;1.00;;;0.57;;
61036;SDS011;72210;47.076;15.430;2023-11-18T01:30:11;0.60;;;0.50;;
61036;SDS011;72210;47.076;15.430;2023-11-18T01:32:39;0.50;;;0.50;;
61036;SDS011;72210;47.076;15.430;2023-11-18T01:35:08;0.50;;;0.50;;
61036;SDS011;72210;47.076;15.430;2023-11-18T01:37:35;0.60;;;0.50;;
61036;SDS011;72210;47.076;15.430;2023-11-18T01:40:02;0.70;;;0.60;;
61036;SDS011;72210;47.076;15.430;2023-11-18T01:42:30;0.60;;;0.50;;
61036;SDS011;72210;47.076;15.430;2023-11-18T01:44:57;0.60;;;0.50;;
61036;SDS011;72210;47.076;15.430;2023-11-18T01:47:23;0.52;;;0.50;;
61036;SDS011;72210;47.076;15.430;2023-11-18T01:49:50;0.50;;;0.50;;
61036;SDS011;72210;47.076;15.430;2023-11-18T01:52:19;0.60;;;0.50;;
61036;SDS011;72210;47.076;15.430;2023-11-18T01:54:46;0.50;;;0.50;;
61036;SDS011;72210;47.076;15.430;2023-11-18T01:57:14;0.60;;;0.57;;
61036;SDS011;72210;47.076;15.430;2023-11-18T01:59:41;0.63;;;0.60;;
61036;SDS011;72210;47.076;15.430;2023-11-18T02:02:08;0.60;;;0.50;;
61036;SDS011;72210;47.076;15.430;2023-11-18T02:04:35;0.60;;;0.50;;
61036;SDS011;72210;47.076;15.430;2023-11-18T02:07:02;0.50;;;0.50;;
61036;SDS011;72210;47.076;15.430;2023-11-18T02:09:30;0.60;;;0.50;;
61036;SDS011;72210;47.076;15.430;2023-11-18T02:11:59;0.60;;;0.50;;
61036;SDS011;72210;47.076;15.430;2023-11-18T02:14:31;0.60;;;0.50;;
61036;SDS011;72210;47.076;15.430;2023-11-18T02:16:59;0.50;;;0.50;;
61036;SDS011;72210;47.076;15.430;2023-11-18T02:19:29;0.50;;;0.50;;
61036;SDS011;72210;47.076;15.430;2023-11-18T02:21:57;0.70;;;0.50;;
61036;SDS011;72210;47.076;15.430;2023-11-18T02:24:26;0.50;;;0.50;;
61036;SDS011;72210;47.076;15.430;2023-11-18T02:26:56;0.50;;;0.50;;
61036;SDS011;72210;47.076;15.430;2023-11-18T02:29:24;0.50;;;0.50;;
61036;SDS011;72210;47.076;15.430;2023-11-18T02:31:54;0.60;;;0.50;;
61036;SDS011;72210;47.076;15.430;2023-11-18T02:34:27;0.50;;;0.50;;
61036;SDS011;72210;47.076;15.430;2023-11-18T02:36:57;0.60;;;0.50;;
61036;SDS011;72210;47.076;15.430;2023-11-18T02:39:27;0.60;;;0.50;;
61036;SDS011;72210;47.076;15.430;2023-11-18T02:42:01;0.70;;;0.60;;
61036;SDS011;72210;47.076;15.430;2023-11-18T02:44:28;0.50;;;0.50;;
61036;SDS011;72210;47.076;15.430;2023-11-18T02:46:58;0.70;;;0.60;;
61036;SDS011;72210;47.076;15.430;2023-11-18T02:49:25;0.52;;;0.50;;
61036;SDS011;72210;47.076;15.430;2023-11-18T02:51:52;0.73;;;0.60;;
61036;SDS011;72210;47.076;15.430;2023-11-18T02:54:19;0.63;;;0.60;;
61036;SDS011;72210;47.076;15.430;2023-11-18T02:56:46;0.60;;;0.50;;
61036;SDS011;72210;47.076;15.430;2023-11-18T02:59:14;0.50;;;0.50;;
61036;SDS011;72210;47.076;15.430;2023-11-18T03:01:41;0.60;;;0.57;;
61036;SDS011;72210;47.076;15.430;2023-11-18T03:04:08;0.60;;;0.50;;
61036;SDS011;72210;47.076;15.430;2023-11-18T03:06:35;0.60;;;0.50;;
61036;SDS011;72210;47.076;15.430;2023-11-18T03:09:02;0.60;;;0.50;;
61036;SDS011;72210;47.076;15.430;2023-11-18T03:11:30;0.63;;;0.50;;
61036;SDS011;72210;47.076;15.430;2023-11-18T03:13:57;0.50;;;0.50;;
61036;SDS011;72210;47.076;15.430;2023-11-18T03:16:25;0.50;;;0.50;;
61036;SDS011;72210;47.076;15.430;2023-11-18T03:18:52;0.80;;;0.60;;
61036;SDS011;72210;47.076;15.430;2023-11-18T03:21:19;0.50;;;0.50;;
61036;SDS011;72210;47.076;15.430;2023-11-18T03:23:46;0.60;;;0.50;;
61036;SDS011;72210;47.076;15.430;2023-11-18T03:26:13;0.50;;;0.50;;
61036;SDS011;72210;47.076;15.430;2023-11-18T03:28:40;0.60;;;0.50;;
61036;SDS011;72210;47.076;15.430;2023-11-18T03:31:07;0.50;;;0.50;;
61036;SDS011;72210;47.076;15.430;2023-11-18T03:33:35;0.60;;;0.50;;
61036;SDS011;72210;47.076;15.430;2023-11-18T03:36:02;0.60;;;0.50;;
61036;SDS011;72210;47.076;15.430;2023-11-18T03:38:30;0.50;;;0.50;;
61036;SDS011;72210;47.076;15.430;2023-11-18T03:40:57;0.63;;;0.60;;
61036;SDS011;72210;47.076;15.430;2023-11-18T03:43:24;0.60;;;0.50;;
61036;SDS011;72210;47.076;15.430;2023-11-18T03:45:51;0.60;;;0.50;;
61036;SDS011;72210;47.076;15.430;2023-11-18T03:48:18;0.60;;;0.50;;
61036;SDS011;72210;47.076;15.430;2023-11-18T03:50:46;0.50;;;0.50;;
61036;SDS011;72210;47.076;15.430;2023-11-18T03:53:13;0.55;;;0.50;;
61036;SDS011;72210;47.076;15.430;2023-11-18T03:55:40;0.70;;;0.60;;
61036;SDS011;72210;47.076;15.430;2023-11-18T03:58:07;0.60;;;0.50;;
61036;SDS011;72210;47.076;15.430;2023-11-18T04:00:34;0.60;;;0.50;;
61036;SDS011;72210;47.076;15.430;2023-11-18T04:03:01;0.50;;;0.40;;
61036;SDS011;72210;47.076;15.430;2023-11-18T04:05:28;0.50;;;0.50;;
61036;SDS011;72210;47.076;15.430;2023-11-18T04:07:56;0.80;;;0.60;;
61036;SDS011;72210;47.076;15.430;2023-11-18T04:10:23;0.50;;;0.45;;
61036;SDS011;72210;47.076;15.430;2023-11-18T04:12:50;0.73;;;0.50;;
61036;SDS011;72210;47.076;15.430;2023-11-18T04:15:16;0.60;;;0.50;;
61036;SDS011;72210;47.076;15.430;2023-11-18T04:17:43;0.70;;;0.50;;
61036;SDS011;72210;47.076;15.430;2023-11-18T04:20:11;0.50;;;0.45;;
61036;SDS011;72210;47.076;15.430;2023-11-18T04:22:39;0.70;;;0.55;;
61036;SDS011;72210;47.076;15.430;2023-11-18T04:25:09;0.60;;;0.55;;
61036;SDS011;72210;47.076;15.430;2023-11-18T04:27:36;0.60;;;0.50;;
61036;SDS011;72210;47.076;15.430;2023-11-18T04:30:03;0.60;;;0.55;;
61036;SDS011;72210;47.076;15.430;2023-11-18T04:32:31;0.50;;;0.50;;
61036;SDS011;72210;47.076;15.430;2023-11-18T04:34:59;0.60;;;0.50;;
61036;SDS011;72210;47.076;15.430;2023-11-18T04:37:27;0.60;;;0.50;;
61036;SDS011;72210;47.076;15.430;2023-11-18T04:39:53;0.60;;;0.55;;
61036;SDS011;72210;47.076;15.430;2023-11-18T04:42:22;0.70;;;0.60;;
61036;SDS011;72210;47.076;15.430;2023-11-18T04:44:49;0.60;;;0.50;;
61036;SDS011;72210;47.076;15.430;2023-11-18T04:47:15;0.60;;;0.50;;
61036;SDS011;72210;47.076;15.430;2023-11-18T04:49:42;0.60;;;0.57;;
61036;SDS011;72210;47.076;15.430;2023-11-18T04:52:09;0.60;;;0.60;;
61036;SDS011;72210;47.076;15.430;2023-11-18T04:54:36;0.50;;;0.50;;
61036;SDS011;72210;47.076;15.430;2023-11-18T04:57:03;0.60;;;0.60;;
61036;SDS011;72210;47.076;15.430;2023-11-18T04:59:32;0.60;;;0.50;;
61036;SDS011;72210;47.076;15.430;2023-11-18T05:01:59;0.60;;;0.50;;
61036;SDS011;72210;47.076;15.430;2023-11-18T05:04:26;0.60;;;0.50;;
61036;SDS011;72210;47.076;15.430;2023-11-18T05:06:52;0.70;;;0.52;;
61036;SDS011;72210;47.076;15.430;2023-11-18T05:09:19;0.60;;;0.60;;
61036;SDS011;72210;47.076;15.430;2023-11-18T05:11:46;1.23;;;0.50;;
61036;SDS011;72210;47.076;15.430;2023-11-18T05:14:13;0.50;;;0.50;;
61036;SDS011;72210;47.076;15.430;2023-11-18T05:16:41;0.60;;;0.50;;
61036;SDS011;72210;47.076;15.430;2023-11-18T05:19:08;0.60;;;0.50;;
61036;SDS011;72210;47.076;15.430;2023-11-18T05:21:35;0.70;;;0.60;;
61036;SDS011;72210;47.076;15.430;2023-11-18T05:24:02;0.70;;;0.60;;
61036;SDS011;72210;47.076;15.430;2023-11-18T05:26:30;0.60;;;0.50;;
61036;SDS011;72210;47.076;15.430;2023-11-18T05:28:57;0.60;;;0.50;;
61036;SDS011;72210;47.076;15.430;2023-11-18T05:31:24;0.60;;;0.50;;
61036;SDS011;72210;47.076;15.430;2023-11-18T05:33:52;0.50;;;0.50;;
61036;SDS011;72210;47.076;15.430;2023-11-18T05:36:19;0.57;;;0.50;;
61036;SDS011;72210;47.076;15.430;2023-11-18T05:38:46;0.52;;;0.50;;
61036;SDS011;72210;47.076;15.430;2023-11-18T05:41:12;0.63;;;0.60;;
61036;SDS011;72210;47.076;15.430;2023-11-18T05:43:39;0.60;;;0.50;;
61036;SDS011;72210;47.076;15.430;2023-11-18T05:46:07;0.60;;;0.50;;
61036;SDS011;72210;47.076;15.430;2023-11-18T05:48:34;0.70;;;0.60;;
61036;SDS011;72210;47.076;15.430;2023-11-18T05:51:03;0.60;;;0.50;;
61036;SDS011;72210;47.076;15.430;2023-11-18T05:53:30;0.60;;;0.57;;
61036;SDS011;72210;47.076;15.430;2023-11-18T05:56:00;0.70;;;0.60;;
61036;SDS011;72210;47.076;15.430;2023-11-18T05:58:26;0.60;;;0.50;;
61036;SDS011;72210;47.076;15.430;2023-11-18T06:00:54;0.70;;;0.60;;
61036;SDS011;72210;47.076;15.430;2023-11-18T06:03:21;0.60;;;0.50;;
61036;SDS011;72210;47.076;15.430;2023-11-18T06:05:48;0.60;;;0.60;;
61036;SDS011;72210;47.076;15.430;2023-11-18T06:08:17;0.73;;;0.60;;
61036;SDS011;72210;47.076;15.430;2023-11-18T06:10:44;0.60;;;0.50;;
61036;SDS011;72210;47.076;15.430;2023-11-18T06:13:10;0.60;;;0.57;;
61036;SDS011;72210;47.076;15.430;2023-11-18T06:15:37;0.60;;;0.50;;
61036;SDS011;72210;47.076;15.430;2023-11-18T06:18:04;0.63;;;0.50;;
61036;SDS011;72210;47.076;15.430;2023-11-18T06:20:33;0.60;;;0.60;;
61036;SDS011;72210;47.076;15.430;2023-11-18T06:23:01;0.50;;;0.50;;
61036;SDS011;72210;47.076;15.430;2023-11-18T06:25:29;0.50;;;0.50;;
61036;SDS011;72210;47.076;15.430;2023-11-18T06:27:56;0.63;;;0.50;;
61036;SDS011;72210;47.076;15.430;2023-11-18T06:30:23;0.50;;;0.50;;
61036;SDS011;72210;47.076;15.430;2023-11-18T06:32:50;0.50;;;0.50;;
61036;SDS011;72210;47.076;15.430;2023-11-18T06:35:17;0.70;;;0.60;;
61036;SDS011;72210;47.076;15.430;2023-11-18T06:37:44;0.50;;;0.50;;
61036;SDS011;72210;47.076;15.430;2023-11-18T06:40:11;0.60;;;0.60;;
61036;SDS011;72210;47.076;15.430;2023-11-18T06:42:41;0.77;;;0.60;;
61036;SDS011;72210;47.076;15.430;2023-11-18T06:45:08;0.60;;;0.50;;
61036;SDS011;72210;47.076;15.430;2023-11-18T06:47:35;0.60;;;0.50;;
61036;SDS011;72210;47.076;15.430;2023-11-18T06:50:03;0.50;;;0.50;;
61036;SDS011;72210;47.076;15.430;2023-11-18T06:52:30;0.50;;;0.50;;
61036;SDS011;72210;47.076;15.430;2023-11-18T06:54:57;0.60;;;0.50;;
61036;SDS011;72210;47.076;15.430;2023-11-18T06:57:24;0.60;;;0.50;;
61036;SDS011;72210;47.076;15.430;2023-11-18T06:59:52;0.60;;;0.50;;
61036;SDS011;72210;47.076;15.430;2023-11-18T07:02:19;0.60;;;0.55;;
61036;SDS011;72210;47.076;15.430;2023-11-18T07:04:46;0.50;;;0.50;;
61036;SDS011;72210;47.076;15.430;2023-11-18T07:07:13;0.60;;;0.52;;
61036;SDS011;72210;47.076;15.430;2023-11-18T07:09:40;0.60;;;0.50;;
61036;SDS011;72210;47.076;15.430;2023-11-18T07:12:07;0.50;;;0.50;;
61036;SDS011;72210;47.076;15.430;2023-11-18T07:14:34;0.60;;;0.50;;
61036;SDS011;72210;47.076;15.430;2023-11-18T07:17:02;0.63;;;0.60;;
61036;SDS011;72210;47.076;15.430;2023-11-18T07:19:29;0.60;;;0.50;;
61036;SDS011;72210;47.076;15.430;2023-11-18T07:21:56;0.50;;;0.50;;
61036;SDS011;72210;47.076;15.430;2023-11-18T07:24:23;0.50;;;0.40;;
61036;SDS011;72210;47.076;15.430;2023-11-18T07:26:50;0.50;;;0.40;;
61036;SDS011;72210;47.076;15.430;2023-11-18T07:29:17;0.57;;;0.50;;
61036;SDS011;72210;47.076;15.430;2023-11-18T07:31:44;0.50;;;0.50;;
61036;SDS011;72210;47.076;15.430;2023-11-18T07:34:13;0.73;;;0.52;;
61036;SDS011;72210;47.076;15.430;2023-11-18T07:36:40;0.50;;;0.50;;
61036;SDS011;72210;47.076;15.430;2023-11-18T07:39:07;0.50;;;0.40;;
61036;SDS011;72210;47.076;15.430;2023-11-18T07:41:34;0.50;;;0.50;;
61036;SDS011;72210;47.076;15.430;2023-11-18T07:44:01;0.60;;;0.50;;
61036;SDS011;72210;47.076;15.430;2023-11-18T07:46:28;0.60;;;0.50;;
61036;SDS011;72210;47.076;15.430;2023-11-18T07:48:55;0.60;;;0.50;;
61036;SDS011;72210;47.076;15.430;2023-11-18T07:51:23;1.05;;;0.50;;
61036;SDS011;72210;47.076;15.430;2023-11-18T07:53:51;0.50;;;0.50;;
61036;SDS011;72210;47.076;15.430;2023-11-18T07:56:18;0.60;;;0.50;;
61036;SDS011;72210;47.076;15.430;2023-11-18T07:58:45;0.50;;;0.50;;
61036;SDS011;72210;47.076;15.430;2023-11-18T08:01:12;0.50;;;0.50;;
61036;SDS011;72210;47.076;15.430;2023-11-18T08:03:40;0.60;;;0.50;;
61036;SDS011;72210;47.076;15.430;2023-11-18T08:06:07;0.85;;;0.50;;
61036;SDS011;72210;47.076;15.430;2023-11-18T08:08:35;0.57;;;0.47;;
61036;SDS011;72210;47.076;15.430;2023-11-18T08:11:02;0.80;;;0.70;;
61036;SDS011;72210;47.076;15.430;2023-11-18T08:13:30;0.90;;;0.70;;
61036;SDS011;72210;47.076;15.430;2023-11-18T08:15:57;0.90;;;0.70;;
61036;SDS011;72210;47.076;15.430;2023-11-18T08:18:24;0.60;;;0.50;;
61036;SDS011;72210;47.076;15.430;2023-11-18T08:20:51;0.85;;;0.60;;
61036;SDS011;72210;47.076;15.430;2023-11-18T08:23:18;0.60;;;0.50;;
61036;SDS011;72210;47.076;15.430;2023-11-18T08:25:46;0.80;;;0.60;;
61036;SDS011;72210;47.076;15.430;2023-11-18T08:28:13;0.50;;;0.40;;
61036;SDS011;72210;47.076;15.430;2023-11-18T08:30:40;0.40;;;0.35;;
61036;SDS011;72210;47.076;15.430;2023-11-18T08:33:07;0.68;;;0.52;;
61036;SDS011;72210;47.076;15.430;2023-11-18T08:35:34;0.40;;;0.40;;
61036;SDS011;72210;47.076;15.430;2023-11-18T08:38:01;0.40;;;0.30;;
61036;SDS011;72210;47.076;15.430;2023-11-18T08:40:28;0.35;;;0.30;;
61036;SDS011;72210;47.076;15.430;2023-11-18T08:42:57;0.30;;;0.30;;
61036;SDS011;72210;47.076;15.430;2023-11-18T08:45:24;0.32;;;0.30;;
61036;SDS011;72210;47.076;15.430;2023-11-18T08:47:52;0.32;;;0.30;;
61036;SDS011;72210;47.076;15.430;2023-11-18T08:50:19;0.20;;;0.20;;
61036;SDS011;72210;47.076;15.430;2023-11-18T08:52:47;0.40;;;0.30;;
61036;SDS011;72210;47.076;15.430;2023-11-18T08:55:15;0.30;;;0.28;;
61036;SDS011;72210;47.076;15.430;2023-11-18T08:57:42;0.10;;;0.10;;
61036;SDS011;72210;47.076;15.430;2023-11-18T09:00:11;0.20;;;0.20;;
61036;SDS011;72210;47.076;15.430;2023-11-18T09:02:39;0.20;;;0.20;;
61036;SDS011;72210;47.076;15.430;2023-11-18T09:05:19;0.10;;;0.10;;
61036;SDS011;72210;47.076;15.430;2023-11-18T09:07:46;0.30;;;0.30;;
61036;SDS011;72210;47.076;15.430;2023-11-18T09:10:13;0.15;;;0.10;;
61036;SDS011;72210;47.076;15.430;2023-11-18T09:12:40;0.30;;;0.30;;
61036;SDS011;72210;47.076;15.430;2023-11-18T09:15:07;0.40;;;0.25;;
61036;SDS011;72210;47.076;15.430;2023-11-18T09:17:36;0.32;;;0.28;;
61036;SDS011;72210;47.076;15.430;2023-11-18T09:20:04;0.20;;;0.20;;
61036;SDS011;72210;47.076;15.430;2023-11-18T09:22:31;0.52;;;0.32;;
61036;SDS011;72210;47.076;15.430;2023-11-18T09:24:58;0.30;;;0.20;;
61036;SDS011;72210;47.076;15.430;2023-11-18T09:27:25;0.30;;;0.30;;
61036;SDS011;72210;47.076;15.430;2023-11-18T09:29:52;0.30;;;0.30;;
61036;SDS011;72210;47.076;15.430;2023-11-18T09:32:23;0.30;;;0.30;;
61036;SDS011;72210;47.076;15.430;2023-11-18T09:34:51;0.30;;;0.30;;
61036;SDS011;72210;47.076;15.430;2023-11-18T09:37:18;0.30;;;0.30;;
61036;SDS011;72210;47.076;15.430;2023-11-18T09:39:45;0.30;;;0.30;;
61036;SDS011;72210;47.076;15.430;2023-11-18T09:42:12;0.40;;;0.35;;
61036;SDS011;72210;47.076;15.430;2023-11-18T09:44:40;0.40;;;0.32;;
61036;SDS011;72210;47.076;15.430;2023-11-18T09:47:07;0.30;;;0.30;;
61036;SDS011;72210;47.076;15.430;2023-11-18T09:49:39;0.30;;;0.30;;
61036;SDS011;72210;47.076;15.430;2023-11-18T09:54:43;0.40;;;0.32;;
61036;SDS011;72210;47.076;15.430;2023-11-18T09:57:18;0.40;;;0.40;;
61036;SDS011;72210;47.076;15.430;2023-11-18T09:59:52;0.38;;;0.38;;
61036;SDS011;72210;47.076;15.430;2023-11-18T10:02:24;0.70;;;0.60;;
61036;SDS011;72210;47.076;15.430;2023-11-18T10:04:51;0.40;;;0.40;;
61036;SDS011;72210;47.076;15.430;2023-11-18T10:07:20;0.55;;;0.50;;
61036;SDS011;72210;47.076;15.430;2023-11-18T10:09:50;1.10;;;0.80;;
61036;SDS011;72210;47.076;15.430;2023-11-18T10:12:17;0.30;;;0.30;;
61036;SDS011;72210;47.076;15.430;2023-11-18T10:14:44;0.60;;;0.60;;
61036;SDS011;72210;47.076;15.430;2023-11-18T10:17:11;0.30;;;0.20;;
61036;SDS011;72210;47.076;15.430;2023-11-18T10:19:51;0.30;;;0.20;;
61036;SDS011;72210;47.076;15.430;2023-11-18T10:22:22;0.40;;;0.30;;
61036;SDS011;72210;47.076;15.430;2023-11-18T10:24:50;0.60;;;0.50;;
61036;SDS011;72210;47.076;15.430;2023-11-18T10:27:17;0.30;;;0.30;;
61036;SDS011;72210;47.076;15.430;2023-11-18T10:29:44;0.30;;;0.30;;
61036;SDS011;72210;47.076;15.430;2023-11-18T10:32:11;0.68;;;0.50;;
61036;SDS011;72210;47.076;15.430;2023-11-18T10:34:38;0.40;;;0.40;;
61036;SDS011;72210;47.076;15.430;2023-11-18T10:37:05;0.50;;;0.40;;
61036;SDS011;72210;47.076;15.430;2023-11-18T10:39:33;0.50;;;0.40;;
61036;SDS011;72210;47.076;15.430;2023-11-18T10:42:00;0.10;;;0.10;;
61036;SDS011;72210;47.076;15.430;2023-11-18T10:44:29;0.30;;;0.30;;
61036;SDS011;72210;47.076;15.430;2023-11-18T10:46:56;0.25;;;0.20;;
61036;SDS011;72210;47.076;15.430;2023-11-18T10:49:23;0.45;;;0.40;;
61036;SDS011;72210;47.076;15.430;2023-11-18T10:51:50;0.30;;;0.30;;
61036;SDS011;72210;47.076;15.430;2023-11-18T10:54:17;0.30;;;0.30;;
61036;SDS011;72210;47.076;15.430;2023-11-18T10:56:49;0.10;;;0.10;;
61036;SDS011;72210;47.076;15.430;2023-11-18T10:59:16;0.40;;;0.30;;
61036;SDS011;72210;47.076;15.430;2023-11-18T11:01:44;0.40;;;0.30;;
61036;SDS011;72210;47.076;15.430;2023-11-18T11:04:11;0.50;;;0.40;;
61036;SDS011;72210;47.076;15.430;2023-11-18T11:06:40;0.35;;;0.30;;
61036;SDS011;72210;47.076;15.430;2023-11-18T11:09:08;0.30;;;0.30;;
61036;SDS011;72210;47.076;15.430;2023-11-18T11:11:36;0.30;;;0.20;;
61036;SDS011;72210;47.076;15.430;2023-11-18T11:14:08;0.30;;;0.28;;
61036;SDS011;72210;47.076;15.430;2023-11-18T11:16:40;0.20;;;0.20;;
61036;SDS011;72210;47.076;15.430;2023-11-18T11:19:08;0.30;;;0.28;;
61036;SDS011;72210;47.076;15.430;2023-11-18T11:21:52;0.10;;;0.10;;
61036;SDS011;72210;47.076;15.430;2023-11-18T11:24:27;0.20;;;0.20;;
61036;SDS011;72210;47.076;15.430;2023-11-18T11:27:08;0.25;;;0.20;;
61036;SDS011;72210;47.076;15.430;2023-11-18T11:29:45;0.20;;;0.20;;
61036;SDS011;72210;47.076;15.430;2023-11-18T11:32:18;0.25;;;0.22;;
61036;SDS011;72210;47.076;15.430;2023-11-18T11:34:53;0.10;;;0.10;;
61036;SDS011;72210;47.076;15.430;2023-11-18T11:37:23;0.20;;;0.20;;
61036;SDS011;72210;47.076;15.430;2023-11-18T11:39:51;0.20;;;0.20;;
61036;SDS011;72210;47.076;15.430;2023-11-18T11:42:20;0.30;;;0.30;;
61036;SDS011;72210;47.076;15.430;2023-11-18T11:44:49;0.20;;;0.20;;
61036;SDS011;72210;47.076;15.430;2023-11-18T11:47:17;0.20;;;0.20;;
61036;SDS011;72210;47.076;15.430;2023-11-18T11:49:49;0.20;;;0.20;;
61036;SDS011;72210;47.076;15.430;2023-11-18T11:52:27;0.10;;;0.10;;
61036;SDS011;72210;47.076;15.430;2023-11-18T11:54:59;0.20;;;0.20;;
61036;SDS011;72210;47.076;15.430;2023-11-18T11:57:31;0.00;;;0.00;;
61036;SDS011;72210;47.076;15.430;2023-11-18T12:00:04;0.03;;;0.00;;
61036;SDS011;72210;47.076;15.430;2023-11-18T12:02:35;0.10;;;0.10;;
61036;SDS011;72210;47.076;15.430;2023-11-18T12:05:03;0.00;;;0.00;;
61036;SDS011;72210;47.076;15.430;2023-11-18T12:07:32;0.10;;;0.10;;
61036;SDS011;72210;47.076;15.430;2023-11-18T12:09:59;0.10;;;0.10;;
61036;SDS011;72210;47.076;15.430;2023-11-18T12:12:27;0.10;;;0.10;;
61036;SDS011;72210;47.076;15.430;2023-11-18T12:14:55;0.10;;;0.10;;
61036;SDS011;72210;47.076;15.430;2023-11-18T12:17:24;0.20;;;0.20;;
61036;SDS011;72210;47.076;15.430;2023-11-18T12:19:51;0.13;;;0.13;;
61036;SDS011;72210;47.076;15.430;2023-11-18T12:22:19;0.20;;;0.20;;
61036;SDS011;72210;47.076;15.430;2023-11-18T12:27:57;0.30;;;0.20;;
61036;SDS011;72210;47.076;15.430;2023-11-18T12:30:39;0.30;;;0.20;;
61036;SDS011;72210;47.076;15.430;2023-11-18T12:33:12;0.30;;;0.20;;
61036;SDS011;72210;47.076;15.430;2023-11-18T12:35:42;0.20;;;0.10;;
61036;SDS011;72210;47.076;15.430;2023-11-18T12:41:33;0.30;;;0.20;;
61036;SDS011;72210;47.076;15.430;2023-11-18T12:44:06;0.32;;;0.22;;
61036;SDS011;72210;47.076;15.430;2023-11-18T12:46:49;0.30;;;0.30;;
61036;SDS011;72210;47.076;15.430;2023-11-18T12:49:19;0.30;;;0.20;;
61036;SDS011;72210;47.076;15.430;2023-11-18T12:51:46;0.30;;;0.20;;
61036;SDS011;72210;47.076;15.430;2023-11-18T12:54:14;0.30;;;0.20;;
61036;SDS011;72210;47.076;15.430;2023-11-18T12:56:43;0.30;;;0.28;;
61036;SDS011;72210;47.076;15.430;2023-11-18T12:59:10;0.20;;;0.20;;
61036;SDS011;72210;47.076;15.430;2023-11-18T13:01:37;0.30;;;0.30;;
61036;SDS011;72210;47.076;15.430;2023-11-18T13:04:05;0.32;;;0.30;;
61036;SDS011;72210;47.076;15.430;2023-11-18T13:06:33;0.30;;;0.20;;
61036;SDS011;72210;47.076;15.430;2023-11-18T13:09:01;0.30;;;0.28;;
61036;SDS011;72210;47.076;15.430;2023-11-18T13:11:28;0.30;;;0.30;;
61036;SDS011;72210;47.076;15.430;2023-11-18T13:13:55;0.20;;;0.20;;
61036;SDS011;72210;47.076;15.430;2023-11-18T13:16:22;0.30;;;0.30;;
61036;SDS011;72210;47.076;15.430;2023-11-18T13:18:50;0.40;;;0.40;;
61036;SDS011;72210;47.076;15.430;2023-11-18T13:21:18;0.40;;;0.30;;
61036;SDS011;72210;47.076;15.430;2023-11-18T13:23:48;0.30;;;0.30;;
61036;SDS011;72210;47.076;15.430;2023-11-18T13:26:18;0.30;;;0.30;;
61036;SDS011;72210;47.076;15.430;2023-11-18T13:28:46;0.30;;;0.30;;
61036;SDS011;72210;47.076;15.430;2023-11-18T13:31:13;0.30;;;0.28;;
61036;SDS011;72210;47.076;15.430;2023-11-18T13:33:41;0.43;;;0.30;;
61036;SDS011;72210;47.076;15.430;2023-11-18T13:36:09;0.30;;;0.30;;
61036;SDS011;72210;47.076;15.430;2023-11-18T13:38:37;0.50;;;0.40;;
61036;SDS011;72210;47.076;15.430;2023-11-18T13:41:05;0.30;;;0.30;;
61036;SDS011;72210;47.076;15.430;2023-11-18T13:43:42;0.30;;;0.30;;
61036;SDS011;72210;47.076;15.430;2023-11-18T13:46:10;0.30;;;0.30;;
61036;SDS011;72210;47.076;15.430;2023-11-18T13:48:38;0.32;;;0.30;;
61036;SDS011;72210;47.076;15.430;2023-11-18T13:51:05;0.30;;;0.30;;
61036;SDS011;72210;47.076;15.430;2023-11-18T13:53:33;0.30;;;0.30;;
61036;SDS011;72210;47.076;15.430;2023-11-18T13:56:01;0.43;;;0.40;;
61036;SDS011;72210;47.076;15.430;2023-11-18T13:58:30;0.35;;;0.30;;
61036;SDS011;72210;47.076;15.430;2023-11-18T14:00:58;0.40;;;0.40;;
61036;SDS011;72210;47.076;15.430;2023-11-18T14:03:26;0.30;;;0.25;;
61036;SDS011;72210;47.076;15.430;2023-11-18T14:05:57;0.20;;;0.20;;
61036;SDS011;72210;47.076;15.430;2023-11-18T14:08:25;0.30;;;0.20;;
61036;SDS011;72210;47.076;15.430;2023-11-18T14:10:52;0.25;;;0.20;;
61036;SDS011;72210;47.076;15.430;2023-11-18T14:13:30;0.30;;;0.20;;
61036;SDS011;72210;47.076;15.430;2023-11-18T14:15:58;0.30;;;0.20;;
61036;SDS011;72210;47.076;15.430;2023-11-18T14:18:25;0.20;;;0.20;;
61036;SDS011;72210;47.076;15.430;2023-11-18T14:20:52;0.30;;;0.30;;
61036;SDS011;72210;47.076;15.430;2023-11-18T14:23:19;0.30;;;0.30;;
61036;SDS011;72210;47.076;15.430;2023-11-18T14:25:47;0.22;;;0.20;;
61036;SDS011;72210;47.076;15.430;2023-11-18T14:28:14;0.30;;;0.22;;
61036;SDS011;72210;47.076;15.430;2023-11-18T14:30:43;0.30;;;0.30;;
61036;SDS011;72210;47.076;15.430;2023-11-18T14:33:10;0.30;;;0.30;;
61036;SDS011;72210;47.076;15.430;2023-11-18T14:35:37;0.20;;;0.20;;
61036;SDS011;72210;47.076;15.430;2023-11-18T14:38:04;0.30;;;0.30;;
61036;SDS011;72210;47.076;15.430;2023-11-18T14:40:32;0.32;;;0.32;;
61036;SDS011;72210;47.076;15.430;2023-11-18T14:42:59;0.30;;;0.20;;
61036;SDS011;72210;47.076;15.430;2023-11-18T14:45:26;0.30;;;0.30;;
61036;SDS011;72210;47.076;15.430;2023-11-18T14:47:54;0.30;;;0.30;;